Terminal Aerodrome Forecast
Issued by NWS

Home | Current Version | Previous Version | Text Only | Print | Product List | Glossary On
Versions: 1 2 3 4 5 6 7 8 9 10 11 12 13 14 15
000
FTUS44 KTSA 170800 AAA
TAFRVS
TAF AMD
KRVS 170834Z 1709/1806 00000KT 5SM BR SKC
      TEMPO 1709/1713 2SM BR
     FM171400 17007KT P6SM OVC250
     FM171800 18009KT P6SM BKN250 PROB30 1800/1806 3SM TSRA
      BKN050CB=

USA.gov is the U.S. government's official web portal to all federal, state and local government web resources and services.